sensor_id;sensor_type;location;lat;lon;timestamp;pressure;altitude;pressure_sealevel;temperature;humidity
44148;BME280;29810;55.848;37.368;2022-12-31T00:02:05;98456.53;;;2.68;97.31
44148;BME280;29810;55.848;37.368;2022-12-31T00:05:07;98467.50;;;2.79;97.41
44148;BME280;29810;55.848;37.368;2022-12-31T00:08:09;98471.88;;;2.74;97.17
44148;BME280;29810;55.848;37.368;2022-12-31T00:11:13;98466.72;;;2.75;97.06
44148;BME280;29810;55.848;37.368;2022-12-31T00:14:18;98468.47;;;2.73;96.91
44148;BME280;29810;55.848;37.368;2022-12-31T00:26:53;98284.09;;;1.71;95.32
44148;BME280;29810;55.848;37.368;2022-12-31T00:29:54;98433.69;;;2.49;96.90
44148;BME280;29810;55.848;37.368;2022-12-31T00:32:56;98455.13;;;2.51;96.24
44148;BME280;29810;55.848;37.368;2022-12-31T00:39:09;98449.97;;;2.51;96.14
44148;BME280;29810;55.848;37.368;2022-12-31T00:42:11;98450.03;;;2.46;96.97
44148;BME280;29810;55.848;37.368;2022-12-31T00:45:13;98458.53;;;2.52;97.28
44148;BME280;29810;55.848;37.368;2022-12-31T00:48:14;98384.63;;;2.08;97.11
44148;BME280;29810;55.848;37.368;2022-12-31T00:51:18;98452.63;;;2.45;96.93
44148;BME280;29810;55.848;37.368;2022-12-31T00:54:20;98454.25;;;2.51;97.07
44148;BME280;29810;55.848;37.368;2022-12-31T00:57:22;98454.28;;;2.49;97.03
44148;BME280;29810;55.848;37.368;2022-12-31T01:00:24;98450.78;;;2.53;97.07
44148;BME280;29810;55.848;37.368;2022-12-31T01:03:25;98448.16;;;2.55;97.08
44148;BME280;29810;55.848;37.368;2022-12-31T01:06:28;98451.63;;;2.55;97.15
44148;BME280;29810;55.848;37.368;2022-12-31T01:09:30;98443.97;;;2.49;96.59
44148;BME280;29810;55.848;37.368;2022-12-31T01:12:33;98450.84;;;2.50;96.89
44148;BME280;29810;55.848;37.368;2022-12-31T01:15:36;98451.69;;;2.49;96.85
44148;BME280;29810;55.848;37.368;2022-12-31T01:18:39;98445.72;;;2.47;96.58
44148;BME280;29810;55.848;37.368;2022-12-31T01:21:41;98445.72;;;2.47;96.80
44148;BME280;29810;55.848;37.368;2022-12-31T01:24:45;98433.06;;;2.35;96.48
44148;BME280;29810;55.848;37.368;2022-12-31T01:27:46;98457.78;;;2.45;96.52
44148;BME280;29810;55.848;37.368;2022-12-31T01:30:49;98427.16;;;2.29;96.78
44148;BME280;29810;55.848;37.368;2022-12-31T01:33:51;98452.53;;;2.51;96.93
44148;BME280;29810;55.848;37.368;2022-12-31T01:36:54;98453.44;;;2.47;96.68
44148;BME280;29810;55.848;37.368;2022-12-31T01:39:55;98450.00;;;2.48;96.80
44148;BME280;29810;55.848;37.368;2022-12-31T01:42:58;98455.16;;;2.48;96.57
44148;BME280;29810;55.848;37.368;2022-12-31T01:45:59;98457.81;;;2.43;96.54
44148;BME280;29810;55.848;37.368;2022-12-31T01:49:15;98459.50;;;2.43;96.70
44148;BME280;29810;55.848;37.368;2022-12-31T01:52:24;98461.16;;;2.47;96.02
44148;BME280;29810;55.848;37.368;2022-12-31T01:58:45;98456.13;;;2.41;95.73
44148;BME280;29810;55.848;37.368;2022-12-31T02:01:49;98449.28;;;2.40;95.64
44148;BME280;29810;55.848;37.368;2022-12-31T02:04:57;98452.81;;;2.34;96.16
44148;BME280;29810;55.848;37.368;2022-12-31T02:08:01;98463.94;;;2.35;95.85
44148;BME280;29810;55.848;37.368;2022-12-31T02:11:31;98456.19;;;2.36;96.14
44148;BME280;29810;55.848;37.368;2022-12-31T02:14:38;98457.69;;;2.49;95.18
44148;BME280;29810;55.848;37.368;2022-12-31T02:35:09;98463.88;;;2.39;94.82
44148;BME280;29810;55.848;37.368;2022-12-31T02:38:20;98453.72;;;2.31;95.32
44148;BME280;29810;55.848;37.368;2022-12-31T02:41:22;98461.37;;;2.35;95.74
44148;BME280;29810;55.848;37.368;2022-12-31T02:44:42;98441.09;;;2.13;95.96
44148;BME280;29810;55.848;37.368;2022-12-31T02:47:55;98467.38;;;2.34;96.01
44148;BME280;29810;55.848;37.368;2022-12-31T02:54:54;98471.50;;;2.44;95.27
44148;BME280;29810;55.848;37.368;2022-12-31T03:01:03;98467.22;;;2.43;95.54
44148;BME280;29810;55.848;37.368;2022-12-31T03:04:25;98464.88;;;2.30;95.51
44148;BME280;29810;55.848;37.368;2022-12-31T03:07:34;98484.59;;;2.28;95.59
44148;BME280;29810;55.848;37.368;2022-12-31T03:10:35;98480.25;;;2.34;95.83
44148;BME280;29810;55.848;37.368;2022-12-31T03:13:37;98483.66;;;2.36;95.94
44148;BME280;29810;55.848;37.368;2022-12-31T03:16:38;98481.16;;;2.29;95.76
44148;BME280;29810;55.848;37.368;2022-12-31T03:19:40;98477.88;;;2.21;95.42
44148;BME280;29810;55.848;37.368;2022-12-31T03:23:04;98482.16;;;2.19;95.80
44148;BME280;29810;55.848;37.368;2022-12-31T03:26:08;98490.66;;;2.24;95.30
44148;BME280;29810;55.848;37.368;2022-12-31T03:29:13;98482.22;;;2.16;94.99
44148;BME280;29810;55.848;37.368;2022-12-31T03:32:14;98488.94;;;2.26;95.68
44148;BME280;29810;55.848;37.368;2022-12-31T03:35:19;98487.28;;;2.22;94.98
44148;BME280;29810;55.848;37.368;2022-12-31T03:38:21;98494.94;;;2.25;95.06
44148;BME280;29810;55.848;37.368;2022-12-31T03:41:23;98485.56;;;2.23;94.93
44148;BME280;29810;55.848;37.368;2022-12-31T03:44:24;98485.06;;;1.96;93.40
44148;BME280;29810;55.848;37.368;2022-12-31T03:47:26;98496.66;;;1.62;94.22
44148;BME280;29810;55.848;37.368;2022-12-31T03:50:27;98507.97;;;1.46;95.98
44148;BME280;29810;55.848;37.368;2022-12-31T03:53:29;98510.53;;;1.49;96.51
44148;BME280;29810;55.848;37.368;2022-12-31T03:56:32;98489.16;;;1.42;96.85
44148;BME280;29810;55.848;37.368;2022-12-31T03:59:33;98517.97;;;1.69;97.26
44148;BME280;29810;55.848;37.368;2022-12-31T04:02:35;98507.97;;;1.46;96.25
44148;BME280;29810;55.848;37.368;2022-12-31T04:05:37;98501.16;;;1.42;96.78
44148;BME280;29810;55.848;37.368;2022-12-31T04:08:38;98511.72;;;1.15;96.80
44148;BME280;29810;55.848;37.368;2022-12-31T04:11:40;98508.56;;;0.87;98.43
44148;BME280;29810;55.848;37.368;2022-12-31T04:14:41;98496.81;;;0.60;100.00
44148;BME280;29810;55.848;37.368;2022-12-31T04:17:43;98505.34;;;0.63;100.00
44148;BME280;29810;55.848;37.368;2022-12-31T04:20:45;98517.38;;;0.55;100.00
44148;BME280;29810;55.848;37.368;2022-12-31T04:23:46;98524.25;;;0.52;100.00
44148;BME280;29810;55.848;37.368;2022-12-31T04:26:48;98525.09;;;0.52;100.00
44148;BME280;29810;55.848;37.368;2022-12-31T04:29:49;98520.78;;;0.57;100.00
44148;BME280;29810;55.848;37.368;2022-12-31T04:32:57;98541.25;;;0.68;100.00
44148;BME280;29810;55.848;37.368;2022-12-31T04:36:06;98543.78;;;0.70;100.00
44148;BME280;29810;55.848;37.368;2022-12-31T04:39:18;98574.56;;;0.71;100.00
44148;BME280;29810;55.848;37.368;2022-12-31T04:42:19;98578.09;;;0.55;100.00
44148;BME280;29810;55.848;37.368;2022-12-31T04:45:21;98584.84;;;0.66;100.00
44148;BME280;29810;55.848;37.368;2022-12-31T04:48:22;98596.00;;;0.65;100.00
44148;BME280;29810;55.848;37.368;2022-12-31T04:51:25;98590.06;;;0.54;100.00
44148;BME280;29810;55.848;37.368;2022-12-31T04:54:28;98596.94;;;0.49;100.00
44148;BME280;29810;55.848;37.368;2022-12-31T04:57:30;98583.34;;;0.36;100.00
44148;BME280;29810;55.848;37.368;2022-12-31T05:00:32;98596.09;;;0.47;100.00
44148;BME280;29810;55.848;37.368;2022-12-31T05:03:34;98588.50;;;0.28;100.00
44148;BME280;29810;55.848;37.368;2022-12-31T05:06:36;98612.38;;;0.46;100.00
44148;BME280;29810;55.848;37.368;2022-12-31T05:09:37;98624.31;;;0.50;100.00
44148;BME280;29810;55.848;37.368;2022-12-31T05:12:39;98624.31;;;0.50;100.00
44148;BME280;29810;55.848;37.368;2022-12-31T05:15:41;98648.31;;;0.33;100.00
44148;BME280;29810;55.848;37.368;2022-12-31T05:18:42;98633.81;;;0.28;100.00
44148;BME280;29810;55.848;37.368;2022-12-31T05:21:44;98632.13;;;0.22;100.00
44148;BME280;29810;55.848;37.368;2022-12-31T05:25:06;98638.06;;;0.32;100.00
44148;BME280;29810;55.848;37.368;2022-12-31T05:28:08;98651.69;;;0.45;100.00
44148;BME280;29810;55.848;37.368;2022-12-31T05:31:09;98653.44;;;0.38;100.00
44148;BME280;29810;55.848;37.368;2022-12-31T05:34:11;98661.97;;;0.39;100.00
44148;BME280;29810;55.848;37.368;2022-12-31T05:37:13;98663.66;;;0.43;100.00
44148;BME280;29810;55.848;37.368;2022-12-31T05:40:14;98634.69;;;0.24;100.00
44148;BME280;29810;55.848;37.368;2022-12-31T05:43:17;98661.13;;;0.40;100.00
44148;BME280;29810;55.848;37.368;2022-12-31T05:46:18;98643.22;;;0.27;100.00
44148;BME280;29810;55.848;37.368;2022-12-31T05:49:21;98677.25;;;0.62;100.00
44148;BME280;29810;55.848;37.368;2022-12-31T05:52:24;98686.69;;;0.55;100.00
44148;BME280;29810;55.848;37.368;2022-12-31T05:55:27;98638.97;;;0.22;100.00
44148;BME280;29810;55.848;37.368;2022-12-31T05:58:29;98692.72;;;0.42;100.00
44148;BME280;29810;55.848;37.368;2022-12-31T06:01:32;98643.28;;;0.12;100.00
44148;BME280;29810;55.848;37.368;2022-12-31T06:04:35;98691.09;;;0.31;100.00
44148;BME280;29810;55.848;37.368;2022-12-31T06:07:36;98694.47;;;0.33;100.00
44148;BME280;29810;55.848;37.368;2022-12-31T06:10:39;98711.59;;;0.28;100.00
44148;BME280;29810;55.848;37.368;2022-12-31T06:13:40;98708.19;;;0.26;100.00
44148;BME280;29810;55.848;37.368;2022-12-31T06:16:43;98720.13;;;0.27;100.00
44148;BME280;29810;55.848;37.368;2022-12-31T06:19:45;98721.84;;;0.28;100.00
44148;BME280;29810;55.848;37.368;2022-12-31T06:22:47;98731.25;;;0.29;100.00
44148;BME280;29810;55.848;37.368;2022-12-31T06:25:48;98733.00;;;0.23;100.00
44148;BME280;29810;55.848;37.368;2022-12-31T06:28:50;98747.50;;;0.28;100.00
44148;BME280;29810;55.848;37.368;2022-12-31T06:31:52;98745.78;;;0.26;100.00
44148;BME280;29810;55.848;37.368;2022-12-31T06:34:53;98763.75;;;0.26;100.00
44148;BME280;29810;55.848;37.368;2022-12-31T06:37:55;98752.59;;;0.36;100.00
44148;BME280;29810;55.848;37.368;2022-12-31T06:40:56;98749.22;;;0.26;100.00
44148;BME280;29810;55.848;37.368;2022-12-31T06:43:58;98775.66;;;0.47;100.00
44148;BME280;29810;55.848;37.368;2022-12-31T06:47:00;98779.91;;;0.49;100.00
44148;BME280;29810;55.848;37.368;2022-12-31T06:50:01;98770.50;;;0.52;100.00
44148;BME280;29810;55.848;37.368;2022-12-31T06:53:05;98791.03;;;0.52;100.00
44148;BME280;29810;55.848;37.368;2022-12-31T06:56:08;98799.59;;;0.41;100.00
44148;BME280;29810;55.848;37.368;2022-12-31T06:59:23;98797.91;;;0.39;100.00
44148;BME280;29810;55.848;37.368;2022-12-31T07:05:53;98804.72;;;0.47;100.00
44148;BME280;29810;55.848;37.368;2022-12-31T07:12:26;98809.88;;;0.47;100.00
44148;BME280;29810;55.848;37.368;2022-12-31T07:22:23;98829.53;;;0.56;100.00
44148;BME280;29810;55.848;37.368;2022-12-31T07:25:25;98819.22;;;0.65;100.00
44148;BME280;29810;55.848;37.368;2022-12-31T07:38:41;98841.44;;;0.59;100.00
44148;BME280;29810;55.848;37.368;2022-12-31T07:42:02;98844.88;;;0.62;100.00
44148;BME280;29810;55.848;37.368;2022-12-31T07:45:13;98845.75;;;0.58;100.00
44148;BME280;29810;55.848;37.368;2022-12-31T07:48:29;98850.91;;;0.46;100.00
44148;BME280;29810;55.848;37.368;2022-12-31T07:51:30;98852.59;;;0.58;100.00
44148;BME280;29810;55.848;37.368;2022-12-31T07:54:32;98854.28;;;0.62;100.00
44148;BME280;29810;55.848;37.368;2022-12-31T08:00:55;98856.81;;;0.76;100.00
44148;BME280;29810;55.848;37.368;2022-12-31T08:04:06;98869.62;;;0.87;100.00
44148;BME280;29810;55.848;37.368;2022-12-31T08:07:53;98867.03;;;0.91;100.00
44148;BME280;29810;55.848;37.368;2022-12-31T08:14:12;98882.34;;;1.14;100.00
44148;BME280;29810;55.848;37.368;2022-12-31T08:17:17;98887.47;;;1.22;100.00
44148;BME280;29810;55.848;37.368;2022-12-31T08:20:19;98876.41;;;1.12;100.00
44148;BME280;29810;55.848;37.368;2022-12-31T08:23:25;98892.62;;;1.13;100.00
44148;BME280;29810;55.848;37.368;2022-12-31T08:26:34;98884.12;;;1.05;100.00
44148;BME280;29810;55.848;37.368;2022-12-31T08:30:09;98892.72;;;0.93;100.00
44148;BME280;29810;55.848;37.368;2022-12-31T08:43:26;98883.28;;;0.99;100.00
44148;BME280;29810;55.848;37.368;2022-12-31T08:49:45;98873.87;;;0.98;100.00
44148;BME280;29810;55.848;37.368;2022-12-31T08:52:47;98881.47;;;1.20;100.00
44148;BME280;29810;55.848;37.368;2022-12-31T08:55:56;98880.69;;;1.04;100.00
44148;BME280;29810;55.848;37.368;2022-12-31T09:03:09;98902.03;;;1.22;100.00
44148;BME280;29810;55.848;37.368;2022-12-31T09:06:28;98922.62;;;1.05;100.00
44148;BME280;29810;55.848;37.368;2022-12-31T09:13:17;98915.72;;;1.21;100.00
44148;BME280;29810;55.848;37.368;2022-12-31T09:16:35;98924.28;;;1.18;100.00
44148;BME280;29810;55.848;37.368;2022-12-31T09:19:42;98922.59;;;1.11;100.00
44148;BME280;29810;55.848;37.368;2022-12-31T09:22:44;98922.62;;;1.12;100.00
44148;BME280;29810;55.848;37.368;2022-12-31T09:32:54;98926.84;;;1.24;100.00
44148;BME280;29810;55.848;37.368;2022-12-31T09:36:07;98927.72;;;1.15;100.00
44148;BME280;29810;55.848;37.368;2022-12-31T09:39:44;98935.44;;;1.14;100.00
44148;BME280;29810;55.848;37.368;2022-12-31T09:59:19;98997.09;;;1.02;100.00
44148;BME280;29810;55.848;37.368;2022-12-31T10:12:05;99003.06;;;1.07;100.00
44148;BME280;29810;55.848;37.368;2022-12-31T10:22:42;98975.53;;;1.52;100.00
44148;BME280;29810;55.848;37.368;2022-12-31T10:28:54;98976.31;;;1.71;100.00
44148;BME280;29810;55.848;37.368;2022-12-31T10:32:20;98987.47;;;1.70;100.00
44148;BME280;29810;55.848;37.368;2022-12-31T10:35:38;98976.31;;;1.73;100.00
44148;BME280;29810;55.848;37.368;2022-12-31T10:39:10;98980.56;;;1.80;99.77
44148;BME280;29810;55.848;37.368;2022-12-31T10:46:03;98983.06;;;1.89;98.30
44148;BME280;29810;55.848;37.368;2022-12-31T10:56:06;99013.13;;;1.76;98.50
44148;BME280;29810;55.848;37.368;2022-12-31T11:06:11;99024.28;;;1.71;97.80
44148;BME280;29810;55.848;37.368;2022-12-31T11:19:32;99047.41;;;1.72;96.74
44148;BME280;29810;55.848;37.368;2022-12-31T11:22:52;99043.91;;;1.96;97.80
44148;BME280;29810;55.848;37.368;2022-12-31T11:26:08;99047.31;;;1.98;96.29
44148;BME280;29810;55.848;37.368;2022-12-31T11:29:32;99051.62;;;1.93;96.50
44148;BME280;29810;55.848;37.368;2022-12-31T11:46:42;99088.97;;;2.62;95.40
44148;BME280;29810;55.848;37.368;2022-12-31T11:56:36;99082.91;;;2.76;94.17
44148;BME280;29810;55.848;37.368;2022-12-31T11:59:40;99073.50;;;2.69;94.07
44148;BME280;29810;55.848;37.368;2022-12-31T12:03:04;99090.72;;;2.60;92.85
44148;BME280;29810;55.848;37.368;2022-12-31T12:06:05;99089.88;;;2.57;93.64
44148;BME280;29810;55.848;37.368;2022-12-31T12:09:13;99092.50;;;2.49;93.81
44148;BME280;29810;55.848;37.368;2022-12-31T12:12:16;99099.31;;;2.53;94.13
44148;BME280;29810;55.848;37.368;2022-12-31T12:15:25;99093.41;;;2.42;94.18
44148;BME280;29810;55.848;37.368;2022-12-31T12:18:39;99098.56;;;2.39;93.89
44148;BME280;29810;55.848;37.368;2022-12-31T12:21:47;99105.47;;;2.32;94.19
44148;BME280;29810;55.848;37.368;2022-12-31T12:24:54;99115.69;;;2.41;94.46
44148;BME280;29810;55.848;37.368;2022-12-31T12:27:56;99114.81;;;2.44;94.14
44148;BME280;29810;55.848;37.368;2022-12-31T12:31:00;99114.00;;;2.42;94.04
44148;BME280;29810;55.848;37.368;2022-12-31T12:34:02;99101.13;;;2.37;93.24
44148;BME280;29810;55.848;37.368;2022-12-31T12:37:24;99112.38;;;2.18;93.33
44148;BME280;29810;55.848;37.368;2022-12-31T12:40:26;99115.00;;;2.10;94.01
44148;BME280;29810;55.848;37.368;2022-12-31T12:43:32;99109.03;;;2.03;94.37
44148;BME280;29810;55.848;37.368;2022-12-31T12:46:38;99099.59;;;2.07;94.71
44148;BME280;29810;55.848;37.368;2022-12-31T12:49:46;99105.50;;;2.24;94.42
44148;BME280;29810;55.848;37.368;2022-12-31T13:13:11;99102.81;;;2.46;93.15
44148;BME280;29810;55.848;37.368;2022-12-31T13:20:12;99108.00;;;2.38;92.05
44148;BME280;29810;55.848;37.368;2022-12-31T13:23:28;99104.56;;;2.36;93.35
44148;BME280;29810;55.848;37.368;2022-12-31T13:26:55;99102.78;;;2.49;93.19
44148;BME280;29810;55.848;37.368;2022-12-31T13:30:00;99089.84;;;2.60;93.34
44148;BME280;29810;55.848;37.368;2022-12-31T13:33:10;99083.81;;;2.62;92.07
44148;BME280;29810;55.848;37.368;2022-12-31T13:36:16;99093.34;;;2.51;91.58
44148;BME280;29810;55.848;37.368;2022-12-31T13:39:25;99094.97;;;2.64;92.21
44148;BME280;29810;55.848;37.368;2022-12-31T13:42:35;99105.19;;;2.78;92.39
44148;BME280;29810;55.848;37.368;2022-12-31T13:45:42;99104.34;;;2.75;91.33
44148;BME280;29810;55.848;37.368;2022-12-31T13:48:55;99115.50;;;2.74;91.79
44148;BME280;29810;55.848;37.368;2022-12-31T13:52:52;99117.19;;;2.79;91.76
44148;BME280;29810;55.848;37.368;2022-12-31T13:55:41;99088.00;;;2.79;91.67
44148;BME280;29810;55.848;37.368;2022-12-31T14:09:27;99094.69;;;3.05;91.00
44148;BME280;29810;55.848;37.368;2022-12-31T14:12:37;99094.75;;;2.92;90.86
44148;BME280;29810;55.848;37.368;2022-12-31T14:19:29;99090.50;;;2.93;91.33
44148;BME280;29810;55.848;37.368;2022-12-31T14:26:02;99082.78;;;2.90;91.20
44148;BME280;29810;55.848;37.368;2022-12-31T14:36:15;99081.09;;;2.86;91.25
44148;BME280;29810;55.848;37.368;2022-12-31T14:49:23;99108.63;;;2.77;91.48
44148;BME280;29810;55.848;37.368;2022-12-31T14:52:33;99110.38;;;2.69;91.89
44148;BME280;29810;55.848;37.368;2022-12-31T14:55:38;99113.00;;;2.64;91.69
44148;BME280;29810;55.848;37.368;2022-12-31T14:58:42;99119.81;;;2.75;92.39
44148;BME280;29810;55.848;37.368;2022-12-31T15:01:55;99116.41;;;2.67;91.93
44148;BME280;29810;55.848;37.368;2022-12-31T15:24:45;99107.69;;;2.89;91.65
44148;BME280;29810;55.848;37.368;2022-12-31T15:27:47;99113.03;;;2.58;90.71
44148;BME280;29810;55.848;37.368;2022-12-31T15:30:51;99102.88;;;2.34;91.46
44148;BME280;29810;55.848;37.368;2022-12-31T15:37:02;99109.00;;;2.06;92.28
44148;BME280;29810;55.848;37.368;2022-12-31T15:40:25;99094.37;;;2.18;93.49
44148;BME280;29810;55.848;37.368;2022-12-31T15:43:43;99090.03;;;2.29;93.32
44148;BME280;29810;55.848;37.368;2022-12-31T15:46:46;99090.06;;;2.18;93.07
44148;BME280;29810;55.848;37.368;2022-12-31T15:49:52;99096.94;;;2.18;93.86
44148;BME280;29810;55.848;37.368;2022-12-31T15:52:57;99092.59;;;2.32;93.70
44148;BME280;29810;55.848;37.368;2022-12-31T15:56:02;99096.84;;;2.41;93.56
44148;BME280;29810;55.848;37.368;2022-12-31T15:59:10;99091.72;;;2.36;92.91
44148;BME280;29810;55.848;37.368;2022-12-31T16:02:23;99078.94;;;2.22;92.89
44148;BME280;29810;55.848;37.368;2022-12-31T16:05:26;99100.41;;;2.10;92.98
44148;BME280;29810;55.848;37.368;2022-12-31T16:08:30;99101.34;;;1.89;93.56
44148;BME280;29810;55.848;37.368;2022-12-31T16:11:37;99076.53;;;1.80;94.48
44148;BME280;29810;55.848;37.368;2022-12-31T16:14:47;99095.34;;;1.84;94.64
44148;BME280;29810;55.848;37.368;2022-12-31T16:18:18;99104.75;;;1.94;94.80
44148;BME280;29810;55.848;37.368;2022-12-31T16:21:30;99101.31;;;2.02;94.98
44148;BME280;29810;55.848;37.368;2022-12-31T16:24:34;99099.66;;;1.84;94.66
44148;BME280;29810;55.848;37.368;2022-12-31T16:27:36;99091.09;;;1.86;94.52
44148;BME280;29810;55.848;37.368;2022-12-31T16:30:39;99079.03;;;2.05;94.71
44148;BME280;29810;55.848;37.368;2022-12-31T16:33:40;99078.97;;;2.10;94.15
44148;BME280;29810;55.848;37.368;2022-12-31T16:37:02;99068.66;;;2.13;93.59
44148;BME280;29810;55.848;37.368;2022-12-31T16:40:16;99084.97;;;2.13;92.27
44148;BME280;29810;55.848;37.368;2022-12-31T16:43:24;99087.53;;;2.10;92.62
44148;BME280;29810;55.848;37.368;2022-12-31T16:46:31;99073.84;;;2.10;91.79
44148;BME280;29810;55.848;37.368;2022-12-31T16:49:37;99063.50;;;2.19;92.29
44148;BME280;29810;55.848;37.368;2022-12-31T16:52:41;99072.06;;;2.18;91.35
44148;BME280;29810;55.848;37.368;2022-12-31T16:55:53;99061.78;;;2.18;90.96
44148;BME280;29810;55.848;37.368;2022-12-31T16:59:00;99055.00;;;2.05;89.83
44148;BME280;29810;55.848;37.368;2022-12-31T17:02:19;99065.25;;;2.12;91.54
44148;BME280;29810;55.848;37.368;2022-12-31T17:05:23;99062.66;;;2.15;91.02
44148;BME280;29810;55.848;37.368;2022-12-31T17:08:39;99078.00;;;2.34;91.16
44148;BME280;29810;55.848;37.368;2022-12-31T17:12:07;99066.06;;;2.22;90.66
44148;BME280;29810;55.848;37.368;2022-12-31T17:15:21;99053.22;;;2.13;90.03
44148;BME280;29810;55.848;37.368;2022-12-31T17:18:27;99046.31;;;2.24;90.18
44148;BME280;29810;55.848;37.368;2022-12-31T17:21:32;99043.84;;;2.07;90.27
44148;BME280;29810;55.848;37.368;2022-12-31T17:24:34;99045.59;;;1.99;90.92
44148;BME280;29810;55.848;37.368;2022-12-31T17:27:37;99035.38;;;1.87;91.69
44148;BME280;29810;55.848;37.368;2022-12-31T17:30:39;99026.03;;;1.69;91.85
44148;BME280;29810;55.848;37.368;2022-12-31T17:33:43;99024.38;;;1.49;92.12
44148;BME280;29810;55.848;37.368;2022-12-31T17:40:03;99019.28;;;1.27;93.90
44148;BME280;29810;55.848;37.368;2022-12-31T17:43:04;99019.31;;;1.21;94.14
44148;BME280;29810;55.848;37.368;2022-12-31T17:46:13;99021.03;;;1.16;94.69
44148;BME280;29810;55.848;37.368;2022-12-31T17:49:15;99017.63;;;1.06;94.77
44148;BME280;29810;55.848;37.368;2022-12-31T17:52:19;99018.50;;;0.97;94.94
44148;BME280;29810;55.848;37.368;2022-12-31T17:55:21;99018.50;;;0.91;95.39
44148;BME280;29810;55.848;37.368;2022-12-31T17:58:42;99003.97;;;0.86;95.81
44148;BME280;29810;55.848;37.368;2022-12-31T18:01:44;99009.94;;;0.86;96.47
44148;BME280;29810;55.848;37.368;2022-12-31T18:04:47;99015.94;;;0.77;96.29
44148;BME280;29810;55.848;37.368;2022-12-31T18:07:48;99001.41;;;0.75;96.54
44148;BME280;29810;55.848;37.368;2022-12-31T18:10:53;99009.13;;;0.73;96.70
44148;BME280;29810;55.848;37.368;2022-12-31T18:13:54;98980.03;;;0.60;97.09
44148;BME280;29810;55.848;37.368;2022-12-31T18:16:57;98998.81;;;0.79;97.23
44148;BME280;29810;55.848;37.368;2022-12-31T18:19:58;98986.84;;;0.89;97.33
44148;BME280;29810;55.848;37.368;2022-12-31T18:23:01;98985.13;;;0.94;97.53
44148;BME280;29810;55.848;37.368;2022-12-31T18:26:03;98974.00;;;0.91;97.39
44148;BME280;29810;55.848;37.368;2022-12-31T18:29:17;98983.41;;;0.93;97.35
44148;BME280;29810;55.848;37.368;2022-12-31T18:32:22;98985.09;;;1.07;97.98
44148;BME280;29810;55.848;37.368;2022-12-31T18:35:26;98985.91;;;1.21;97.32
44148;BME280;29810;55.848;37.368;2022-12-31T18:38:27;98984.16;;;1.34;96.92
44148;BME280;29810;55.848;37.368;2022-12-31T18:41:43;98977.28;;;1.42;96.30
44148;BME280;29810;55.848;37.368;2022-12-31T18:44:49;98965.28;;;1.44;95.87
44148;BME280;29810;55.848;37.368;2022-12-31T18:47:52;98958.44;;;1.42;95.68
44148;BME280;29810;55.848;37.368;2022-12-31T18:50:54;98958.50;;;1.31;95.63
44148;BME280;29810;55.848;37.368;2022-12-31T18:53:59;98959.38;;;1.28;95.82
44148;BME280;29810;55.848;37.368;2022-12-31T18:57:01;98948.19;;;1.39;95.92
44148;BME280;29810;55.848;37.368;2022-12-31T19:00:04;98949.00;;;1.53;95.70
44148;BME280;29810;55.848;37.368;2022-12-31T19:03:13;98937.75;;;1.70;95.36
44148;BME280;29810;55.848;37.368;2022-12-31T19:06:16;98946.22;;;1.89;94.88
44148;BME280;29810;55.848;37.368;2022-12-31T19:09:17;98951.28;;;2.01;94.38
44148;BME280;29810;55.848;37.368;2022-12-31T19:12:21;98930.69;;;2.07;93.81
44148;BME280;29810;55.848;37.368;2022-12-31T19:15:38;98925.47;;;2.15;93.59
44148;BME280;29810;55.848;37.368;2022-12-31T19:18:45;98920.31;;;2.18;91.80
44148;BME280;29810;55.848;37.368;2022-12-31T19:21:47;98920.34;;;2.13;92.23
44148;BME280;29810;55.848;37.368;2022-12-31T19:24:50;98915.28;;;2.04;91.94
44148;BME280;29810;55.848;37.368;2022-12-31T19:27:52;98910.91;;;2.17;92.42
44148;BME280;29810;55.848;37.368;2022-12-31T19:30:55;98907.53;;;2.06;92.19
44148;BME280;29810;55.848;37.368;2022-12-31T19:33:56;98898.16;;;2.00;92.04
44148;BME280;29810;55.848;37.368;2022-12-31T19:36:59;98906.66;;;2.10;91.82
44148;BME280;29810;55.848;37.368;2022-12-31T19:40:01;98876.75;;;1.96;91.78
44148;BME280;29810;55.848;37.368;2022-12-31T19:43:04;98896.44;;;2.01;91.67
44148;BME280;29810;55.848;37.368;2022-12-31T19:46:08;98903.25;;;2.05;91.42
44148;BME280;29810;55.848;37.368;2022-12-31T19:49:13;98894.72;;;2.01;91.66
44148;BME280;29810;55.848;37.368;2022-12-31T19:52:15;98892.97;;;2.05;91.50
44148;BME280;29810;55.848;37.368;2022-12-31T19:55:19;98881.94;;;1.90;91.42
44148;BME280;29810;55.848;37.368;2022-12-31T19:58:25;98897.28;;;2.04;91.50
44148;BME280;29810;55.848;37.368;2022-12-31T20:01:29;98901.53;;;2.08;91.11
44148;BME280;29810;55.848;37.368;2022-12-31T20:04:31;98903.28;;;2.02;91.00
44148;BME280;29810;55.848;37.368;2022-12-31T20:07:32;98896.50;;;1.91;90.95
44148;BME280;29810;55.848;37.368;2022-12-31T20:10:36;98893.06;;;1.94;91.56
44148;BME280;29810;55.848;37.368;2022-12-31T20:13:39;98887.00;;;1.99;91.75
44148;BME280;29810;55.848;37.368;2022-12-31T20:16:41;98885.25;;;2.05;91.49
44148;BME280;29810;55.848;37.368;2022-12-31T20:19:42;98887.00;;;1.99;91.27
44148;BME280;29810;55.848;37.368;2022-12-31T20:22:44;98875.00;;;2.02;91.27
44148;BME280;29810;55.848;37.368;2022-12-31T20:25:59;98858.69;;;2.06;91.22
44148;BME280;29810;55.848;37.368;2022-12-31T20:29:03;98850.91;;;2.13;91.18
44148;BME280;29810;55.848;37.368;2022-12-31T20:32:04;98847.53;;;2.07;90.98
44148;BME280;29810;55.848;37.368;2022-12-31T20:35:06;98836.34;;;2.12;91.32
44148;BME280;29810;55.848;37.368;2022-12-31T20:38:08;98824.38;;;2.08;91.26
44148;BME280;29810;55.848;37.368;2022-12-31T20:41:19;98829.44;;;2.16;90.74
44148;BME280;29810;55.848;37.368;2022-12-31T20:44:20;98818.31;;;2.14;90.97
44148;BME280;29810;55.848;37.368;2022-12-31T20:47:22;98813.25;;;2.05;90.80
44148;BME280;29810;55.848;37.368;2022-12-31T20:50:25;98787.56;;;2.03;91.08
44148;BME280;29810;55.848;37.368;2022-12-31T20:53:28;98777.34;;;1.95;90.91